sensor_id;sensor_type;location;lat;lon;timestamp;P1;durP1;ratioP1;P2;durP2;ratioP2
6193;SDS011;3130;41.564;23.280;2022-08-01T00:01:26;9.07;;;8.27;;
6193;SDS011;3130;41.564;23.280;2022-08-01T00:03:53;11.63;;;7.97;;
6193;SDS011;3130;41.564;23.280;2022-08-01T00:06:20;9.77;;;8.20;;
6193;SDS011;3130;41.564;23.280;2022-08-01T00:08:47;8.47;;;7.67;;
6193;SDS011;3130;41.564;23.280;2022-08-01T00:11:16;8.30;;;7.50;;
6193;SDS011;3130;41.564;23.280;2022-08-01T00:13:43;7.90;;;7.10;;
6193;SDS011;3130;41.564;23.280;2022-08-01T00:16:10;8.60;;;7.67;;
6193;SDS011;3130;41.564;23.280;2022-08-01T00:18:37;8.23;;;7.40;;
6193;SDS011;3130;41.564;23.280;2022-08-01T00:21:04;7.97;;;7.20;;
6193;SDS011;3130;41.564;23.280;2022-08-01T00:23:31;8.43;;;7.50;;
6193;SDS011;3130;41.564;23.280;2022-08-01T00:25:58;6.77;;;6.07;;
6193;SDS011;3130;41.564;23.280;2022-08-01T00:28:27;8.03;;;7.23;;
6193;SDS011;3130;41.564;23.280;2022-08-01T00:30:54;7.27;;;6.53;;
6193;SDS011;3130;41.564;23.280;2022-08-01T00:33:21;8.47;;;7.67;;
6193;SDS011;3130;41.564;23.280;2022-08-01T00:35:48;8.47;;;6.77;;
6193;SDS011;3130;41.564;23.280;2022-08-01T00:38:16;8.13;;;7.27;;
6193;SDS011;3130;41.564;23.280;2022-08-01T00:40:43;7.93;;;7.03;;
6193;SDS011;3130;41.564;23.280;2022-08-01T00:43:10;7.30;;;6.60;;
6193;SDS011;3130;41.564;23.280;2022-08-01T00:45:38;8.47;;;7.77;;
6193;SDS011;3130;41.564;23.280;2022-08-01T00:48:06;8.17;;;7.37;;
6193;SDS011;3130;41.564;23.280;2022-08-01T00:50:33;9.23;;;7.17;;
6193;SDS011;3130;41.564;23.280;2022-08-01T00:53:00;8.00;;;7.30;;
6193;SDS011;3130;41.564;23.280;2022-08-01T00:55:28;8.60;;;7.80;;
6193;SDS011;3130;41.564;23.280;2022-08-01T00:57:56;8.27;;;7.20;;
6193;SDS011;3130;41.564;23.280;2022-08-01T01:00:24;8.60;;;6.87;;
6193;SDS011;3130;41.564;23.280;2022-08-01T01:02:53;8.93;;;7.13;;
6193;SDS011;3130;41.564;23.280;2022-08-01T01:05:20;8.03;;;7.23;;
6193;SDS011;3130;41.564;23.280;2022-08-01T01:07:50;8.13;;;6.73;;
6193;SDS011;3130;41.564;23.280;2022-08-01T01:10:24;7.80;;;7.00;;
6193;SDS011;3130;41.564;23.280;2022-08-01T01:12:59;8.13;;;7.37;;
6193;SDS011;3130;41.564;23.280;2022-08-01T01:15:33;7.53;;;6.47;;
6193;SDS011;3130;41.564;23.280;2022-08-01T01:18:07;11.40;;;6.40;;
6193;SDS011;3130;41.564;23.280;2022-08-01T01:20:38;8.10;;;7.17;;
6193;SDS011;3130;41.564;23.280;2022-08-01T01:23:24;8.97;;;7.87;;
6193;SDS011;3130;41.564;23.280;2022-08-01T01:26:05;9.57;;;6.50;;
6193;SDS011;3130;41.564;23.280;2022-08-01T01:28:55;8.85;;;6.90;;
6193;SDS011;3130;41.564;23.280;2022-08-01T01:31:27;7.33;;;6.63;;
6193;SDS011;3130;41.564;23.280;2022-08-01T01:33:57;8.90;;;7.13;;
6193;SDS011;3130;41.564;23.280;2022-08-01T01:36:26;8.00;;;7.13;;
6193;SDS011;3130;41.564;23.280;2022-08-01T01:38:55;7.60;;;6.80;;
6193;SDS011;3130;41.564;23.280;2022-08-01T01:41:23;8.30;;;6.93;;
6193;SDS011;3130;41.564;23.280;2022-08-01T01:43:52;7.37;;;6.63;;
6193;SDS011;3130;41.564;23.280;2022-08-01T01:46:22;7.47;;;6.70;;
6193;SDS011;3130;41.564;23.280;2022-08-01T01:48:52;8.63;;;7.03;;
6193;SDS011;3130;41.564;23.280;2022-08-01T01:51:22;8.13;;;7.00;;
6193;SDS011;3130;41.564;23.280;2022-08-01T01:53:53;9.47;;;6.93;;
6193;SDS011;3130;41.564;23.280;2022-08-01T01:56:22;8.47;;;6.20;;
6193;SDS011;3130;41.564;23.280;2022-08-01T01:58:51;7.13;;;6.43;;
6193;SDS011;3130;41.564;23.280;2022-08-01T02:01:23;9.10;;;6.73;;
6193;SDS011;3130;41.564;23.280;2022-08-01T02:03:53;7.70;;;6.40;;
6193;SDS011;3130;41.564;23.280;2022-08-01T02:06:22;7.07;;;6.33;;
6193;SDS011;3130;41.564;23.280;2022-08-01T02:08:52;7.43;;;6.37;;
6193;SDS011;3130;41.564;23.280;2022-08-01T02:11:21;7.47;;;6.03;;
6193;SDS011;3130;41.564;23.280;2022-08-01T02:13:50;7.30;;;6.40;;
6193;SDS011;3130;41.564;23.280;2022-08-01T02:16:21;7.50;;;6.57;;
6193;SDS011;3130;41.564;23.280;2022-08-01T02:18:52;6.70;;;6.00;;
6193;SDS011;3130;41.564;23.280;2022-08-01T02:21:26;10.60;;;7.40;;
6193;SDS011;3130;41.564;23.280;2022-08-01T02:26:29;9.70;;;6.27;;
6193;SDS011;3130;41.564;23.280;2022-08-01T02:28:59;7.73;;;6.47;;
6193;SDS011;3130;41.564;23.280;2022-08-01T02:31:32;10.33;;;6.43;;
6193;SDS011;3130;41.564;23.280;2022-08-01T02:34:06;10.13;;;6.63;;
6193;SDS011;3130;41.564;23.280;2022-08-01T02:36:38;6.83;;;6.17;;
6193;SDS011;3130;41.564;23.280;2022-08-01T02:39:06;7.93;;;7.13;;
6193;SDS011;3130;41.564;23.280;2022-08-01T02:41:36;8.10;;;6.47;;
6193;SDS011;3130;41.564;23.280;2022-08-01T02:44:07;10.10;;;7.37;;
6193;SDS011;3130;41.564;23.280;2022-08-01T02:46:43;7.43;;;6.47;;
6193;SDS011;3130;41.564;23.280;2022-08-01T02:49:13;10.20;;;7.37;;
6193;SDS011;3130;41.564;23.280;2022-08-01T02:51:44;9.30;;;6.77;;
6193;SDS011;3130;41.564;23.280;2022-08-01T02:54:14;7.50;;;6.73;;
6193;SDS011;3130;41.564;23.280;2022-08-01T02:56:42;10.63;;;7.03;;
6193;SDS011;3130;41.564;23.280;2022-08-01T02:59:16;7.90;;;7.00;;
6193;SDS011;3130;41.564;23.280;2022-08-01T03:01:46;8.00;;;7.10;;
6193;SDS011;3130;41.564;23.280;2022-08-01T03:04:15;7.20;;;6.50;;
6193;SDS011;3130;41.564;23.280;2022-08-01T03:06:45;9.50;;;8.37;;
6193;SDS011;3130;41.564;23.280;2022-08-01T03:09:13;10.97;;;6.90;;
6193;SDS011;3130;41.564;23.280;2022-08-01T03:11:42;7.23;;;6.53;;
6193;SDS011;3130;41.564;23.280;2022-08-01T03:14:10;9.27;;;7.00;;
6193;SDS011;3130;41.564;23.280;2022-08-01T03:16:39;11.47;;;7.53;;
6193;SDS011;3130;41.564;23.280;2022-08-01T03:19:11;8.17;;;6.90;;
6193;SDS011;3130;41.564;23.280;2022-08-01T03:21:40;8.67;;;7.40;;
6193;SDS011;3130;41.564;23.280;2022-08-01T03:24:10;8.33;;;7.37;;
6193;SDS011;3130;41.564;23.280;2022-08-01T03:26:39;7.33;;;6.60;;
6193;SDS011;3130;41.564;23.280;2022-08-01T03:29:10;7.10;;;6.40;;
6193;SDS011;3130;41.564;23.280;2022-08-01T03:31:40;8.20;;;7.30;;
6193;SDS011;3130;41.564;23.280;2022-08-01T03:34:12;10.80;;;9.67;;
6193;SDS011;3130;41.564;23.280;2022-08-01T03:36:43;13.47;;;9.63;;
6193;SDS011;3130;41.564;23.280;2022-08-01T03:39:13;8.67;;;7.63;;
6193;SDS011;3130;41.564;23.280;2022-08-01T03:41:46;17.27;;;15.40;;
6193;SDS011;3130;41.564;23.280;2022-08-01T03:44:18;9.17;;;7.37;;
6193;SDS011;3130;41.564;23.280;2022-08-01T03:46:52;8.30;;;7.43;;
6193;SDS011;3130;41.564;23.280;2022-08-01T03:49:27;6.47;;;5.73;;
6193;SDS011;3130;41.564;23.280;2022-08-01T03:51:57;8.17;;;7.33;;
6193;SDS011;3130;41.564;23.280;2022-08-01T03:54:30;11.87;;;7.30;;
6193;SDS011;3130;41.564;23.280;2022-08-01T03:57:00;7.40;;;6.70;;
6193;SDS011;3130;41.564;23.280;2022-08-01T03:59:28;7.23;;;6.33;;
6193;SDS011;3130;41.564;23.280;2022-08-01T04:01:56;8.37;;;7.53;;
6193;SDS011;3130;41.564;23.280;2022-08-01T04:04:26;7.57;;;6.87;;
6193;SDS011;3130;41.564;23.280;2022-08-01T04:06:54;9.10;;;6.53;;
6193;SDS011;3130;41.564;23.280;2022-08-01T04:09:21;8.23;;;6.87;;
6193;SDS011;3130;41.564;23.280;2022-08-01T04:11:48;8.50;;;6.87;;
6193;SDS011;3130;41.564;23.280;2022-08-01T04:14:15;7.90;;;7.10;;
6193;SDS011;3130;41.564;23.280;2022-08-01T04:16:43;8.33;;;6.73;;
6193;SDS011;3130;41.564;23.280;2022-08-01T04:19:10;7.27;;;6.57;;
6193;SDS011;3130;41.564;23.280;2022-08-01T04:21:38;7.50;;;6.80;;
6193;SDS011;3130;41.564;23.280;2022-08-01T04:24:07;10.33;;;6.57;;
6193;SDS011;3130;41.564;23.280;2022-08-01T04:26:39;8.40;;;7.60;;
6193;SDS011;3130;41.564;23.280;2022-08-01T04:29:08;13.40;;;7.20;;
6193;SDS011;3130;41.564;23.280;2022-08-01T04:31:37;7.80;;;7.00;;
6193;SDS011;3130;41.564;23.280;2022-08-01T04:34:08;10.50;;;7.40;;
6193;SDS011;3130;41.564;23.280;2022-08-01T04:36:40;8.10;;;6.57;;
6193;SDS011;3130;41.564;23.280;2022-08-01T04:39:08;10.47;;;7.10;;
6193;SDS011;3130;41.564;23.280;2022-08-01T04:41:36;8.60;;;7.47;;
6193;SDS011;3130;41.564;23.280;2022-08-01T04:44:04;8.30;;;7.47;;
6193;SDS011;3130;41.564;23.280;2022-08-01T04:46:32;7.80;;;6.60;;
6193;SDS011;3130;41.564;23.280;2022-08-01T04:49:02;8.30;;;5.87;;
6193;SDS011;3130;41.564;23.280;2022-08-01T04:51:31;7.20;;;6.50;;
6193;SDS011;3130;41.564;23.280;2022-08-01T04:54:00;9.93;;;6.53;;
6193;SDS011;3130;41.564;23.280;2022-08-01T04:56:28;7.13;;;6.43;;
6193;SDS011;3130;41.564;23.280;2022-08-01T04:58:55;8.60;;;6.33;;
6193;SDS011;3130;41.564;23.280;2022-08-01T05:01:36;9.60;;;7.27;;
6193;SDS011;3130;41.564;23.280;2022-08-01T05:04:03;6.90;;;6.20;;
6193;SDS011;3130;41.564;23.280;2022-08-01T05:06:30;7.00;;;6.40;;
6193;SDS011;3130;41.564;23.280;2022-08-01T05:08:57;8.57;;;6.70;;
6193;SDS011;3130;41.564;23.280;2022-08-01T05:11:26;8.00;;;6.70;;
6193;SDS011;3130;41.564;23.280;2022-08-01T05:13:53;7.47;;;5.63;;
6193;SDS011;3130;41.564;23.280;2022-08-01T05:16:20;9.10;;;6.43;;
6193;SDS011;3130;41.564;23.280;2022-08-01T05:18:47;8.70;;;5.60;;
6193;SDS011;3130;41.564;23.280;2022-08-01T05:21:14;11.00;;;6.47;;
6193;SDS011;3130;41.564;23.280;2022-08-01T05:23:41;9.17;;;6.37;;
6193;SDS011;3130;41.564;23.280;2022-08-01T05:26:09;7.63;;;6.53;;
6193;SDS011;3130;41.564;23.280;2022-08-01T05:28:37;7.53;;;6.57;;
6193;SDS011;3130;41.564;23.280;2022-08-01T05:31:04;7.57;;;5.07;;
6193;SDS011;3130;41.564;23.280;2022-08-01T05:33:31;5.70;;;5.07;;
6193;SDS011;3130;41.564;23.280;2022-08-01T05:35:58;8.63;;;5.97;;
6193;SDS011;3130;41.564;23.280;2022-08-01T05:38:25;7.90;;;5.63;;
6193;SDS011;3130;41.564;23.280;2022-08-01T05:40:53;7.10;;;6.20;;
6193;SDS011;3130;41.564;23.280;2022-08-01T05:43:20;5.93;;;4.67;;
6193;SDS011;3130;41.564;23.280;2022-08-01T05:45:48;5.83;;;4.90;;
6193;SDS011;3130;41.564;23.280;2022-08-01T05:48:16;5.93;;;5.30;;
6193;SDS011;3130;41.564;23.280;2022-08-01T05:50:43;7.20;;;4.40;;
6193;SDS011;3130;41.564;23.280;2022-08-01T05:53:10;5.57;;;5.07;;
6193;SDS011;3130;41.564;23.280;2022-08-01T05:55:37;8.67;;;6.13;;
6193;SDS011;3130;41.564;23.280;2022-08-01T05:58:04;7.63;;;6.20;;
6193;SDS011;3130;41.564;23.280;2022-08-01T06:00:31;5.90;;;4.93;;
6193;SDS011;3130;41.564;23.280;2022-08-01T06:03:00;6.07;;;5.37;;
6193;SDS011;3130;41.564;23.280;2022-08-01T06:05:27;4.90;;;4.40;;
6193;SDS011;3130;41.564;23.280;2022-08-01T06:07:54;4.33;;;3.90;;
6193;SDS011;3130;41.564;23.280;2022-08-01T06:10:21;4.37;;;3.97;;
6193;SDS011;3130;41.564;23.280;2022-08-01T06:12:48;4.07;;;3.67;;
6193;SDS011;3130;41.564;23.280;2022-08-01T06:15:15;5.80;;;3.50;;
6193;SDS011;3130;41.564;23.280;2022-08-01T06:17:42;5.20;;;4.17;;
6193;SDS011;3130;41.564;23.280;2022-08-01T06:20:11;4.07;;;3.47;;
6193;SDS011;3130;41.564;23.280;2022-08-01T06:22:38;7.53;;;3.93;;
6193;SDS011;3130;41.564;23.280;2022-08-01T06:25:06;4.87;;;3.50;;
6193;SDS011;3130;41.564;23.280;2022-08-01T06:27:34;5.07;;;3.83;;
6193;SDS011;3130;41.564;23.280;2022-08-01T06:30:01;3.87;;;3.47;;
6193;SDS011;3130;41.564;23.280;2022-08-01T06:32:29;5.50;;;4.03;;
6193;SDS011;3130;41.564;23.280;2022-08-01T06:34:56;5.93;;;3.43;;
6193;SDS011;3130;41.564;23.280;2022-08-01T06:37:27;6.60;;;3.37;;
6193;SDS011;3130;41.564;23.280;2022-08-01T06:39:56;4.23;;;3.10;;
6193;SDS011;3130;41.564;23.280;2022-08-01T06:42:23;4.40;;;4.00;;
6193;SDS011;3130;41.564;23.280;2022-08-01T06:44:50;6.03;;;3.70;;
6193;SDS011;3130;41.564;23.280;2022-08-01T06:47:17;4.60;;;3.37;;
6193;SDS011;3130;41.564;23.280;2022-08-01T06:49:44;3.33;;;2.57;;
6193;SDS011;3130;41.564;23.280;2022-08-01T06:52:11;3.92;;;2.80;;
6193;SDS011;3130;41.564;23.280;2022-08-01T06:54:40;4.50;;;3.03;;
6193;SDS011;3130;41.564;23.280;2022-08-01T06:57:07;5.40;;;3.70;;
6193;SDS011;3130;41.564;23.280;2022-08-01T06:59:34;3.33;;;3.03;;
6193;SDS011;3130;41.564;23.280;2022-08-01T07:02:01;6.20;;;2.83;;
6193;SDS011;3130;41.564;23.280;2022-08-01T07:04:29;5.15;;;2.97;;
6193;SDS011;3130;41.564;23.280;2022-08-01T07:06:56;4.13;;;2.67;;
6193;SDS011;3130;41.564;23.280;2022-08-01T07:09:23;3.60;;;3.25;;
6193;SDS011;3130;41.564;23.280;2022-08-01T07:11:52;3.40;;;2.50;;
6193;SDS011;3130;41.564;23.280;2022-08-01T07:14:19;3.47;;;3.17;;
6193;SDS011;3130;41.564;23.280;2022-08-01T07:16:47;3.13;;;2.83;;
6193;SDS011;3130;41.564;23.280;2022-08-01T07:19:14;3.42;;;3.00;;
6193;SDS011;3130;41.564;23.280;2022-08-01T07:21:41;5.47;;;4.70;;
6193;SDS011;3130;41.564;23.280;2022-08-01T07:24:09;7.53;;;4.13;;
6193;SDS011;3130;41.564;23.280;2022-08-01T07:26:38;3.28;;;2.95;;
6193;SDS011;3130;41.564;23.280;2022-08-01T07:29:06;3.70;;;3.05;;
6193;SDS011;3130;41.564;23.280;2022-08-01T07:31:33;4.18;;;3.03;;
6193;SDS011;3130;41.564;23.280;2022-08-01T07:34:01;6.50;;;2.95;;
6193;SDS011;3130;41.564;23.280;2022-08-01T07:36:28;3.22;;;2.83;;
6193;SDS011;3130;41.564;23.280;2022-08-01T07:38:55;3.58;;;2.70;;
6193;SDS011;3130;41.564;23.280;2022-08-01T07:41:22;3.88;;;3.03;;
6193;SDS011;3130;41.564;23.280;2022-08-01T07:43:49;3.55;;;2.97;;
6193;SDS011;3130;41.564;23.280;2022-08-01T07:46:18;3.63;;;2.72;;
6193;SDS011;3130;41.564;23.280;2022-08-01T07:48:45;3.17;;;2.88;;
6193;SDS011;3130;41.564;23.280;2022-08-01T07:51:12;3.45;;;3.10;;
6193;SDS011;3130;41.564;23.280;2022-08-01T07:53:39;3.45;;;3.15;;
6193;SDS011;3130;41.564;23.280;2022-08-01T07:56:07;3.35;;;2.97;;
6193;SDS011;3130;41.564;23.280;2022-08-01T07:58:34;3.70;;;3.40;;
6193;SDS011;3130;41.564;23.280;2022-08-01T08:01:01;3.22;;;2.80;;
6193;SDS011;3130;41.564;23.280;2022-08-01T08:03:30;3.55;;;2.83;;
6193;SDS011;3130;41.564;23.280;2022-08-01T08:05:57;6.32;;;3.03;;
6193;SDS011;3130;41.564;23.280;2022-08-01T08:08:24;4.05;;;3.33;;
6193;SDS011;3130;41.564;23.280;2022-08-01T08:10:52;3.50;;;2.97;;
6193;SDS011;3130;41.564;23.280;2022-08-01T08:13:19;3.75;;;3.40;;
6193;SDS011;3130;41.564;23.280;2022-08-01T08:15:46;3.40;;;2.92;;
6193;SDS011;3130;41.564;23.280;2022-08-01T08:18:13;4.18;;;2.88;;
6193;SDS011;3130;41.564;23.280;2022-08-01T08:20:43;4.03;;;3.35;;
6193;SDS011;3130;41.564;23.280;2022-08-01T08:23:10;3.20;;;2.90;;
6193;SDS011;3130;41.564;23.280;2022-08-01T08:25:55;5.35;;;3.13;;
6193;SDS011;3130;41.564;23.280;2022-08-01T08:28:22;6.47;;;3.15;;
6193;SDS011;3130;41.564;23.280;2022-08-01T08:30:49;9.13;;;2.60;;
6193;SDS011;3130;41.564;23.280;2022-08-01T08:33:18;8.07;;;3.67;;
6193;SDS011;3130;41.564;23.280;2022-08-01T08:35:46;3.65;;;3.30;;
6193;SDS011;3130;41.564;23.280;2022-08-01T08:38:13;3.25;;;2.67;;
6193;SDS011;3130;41.564;23.280;2022-08-01T08:40:41;3.72;;;3.17;;
6193;SDS011;3130;41.564;23.280;2022-08-01T08:43:08;3.67;;;3.20;;
6193;SDS011;3130;41.564;23.280;2022-08-01T08:45:36;2.72;;;2.53;;
6193;SDS011;3130;41.564;23.280;2022-08-01T08:48:03;4.85;;;3.03;;
6193;SDS011;3130;41.564;23.280;2022-08-01T08:50:32;4.03;;;3.35;;
6193;SDS011;3130;41.564;23.280;2022-08-01T08:53:01;5.03;;;3.40;;
6193;SDS011;3130;41.564;23.280;2022-08-01T08:55:29;4.32;;;3.30;;
6193;SDS011;3130;41.564;23.280;2022-08-01T08:57:57;3.30;;;3.00;;
6193;SDS011;3130;41.564;23.280;2022-08-01T09:00:25;5.20;;;3.25;;
6193;SDS011;3130;41.564;23.280;2022-08-01T09:02:52;3.72;;;2.95;;
6193;SDS011;3130;41.564;23.280;2022-08-01T09:05:22;3.85;;;3.10;;
6193;SDS011;3130;41.564;23.280;2022-08-01T09:07:51;3.65;;;2.80;;
6193;SDS011;3130;41.564;23.280;2022-08-01T09:10:20;4.72;;;3.63;;
6193;SDS011;3130;41.564;23.280;2022-08-01T09:13:06;2.83;;;2.63;;
6193;SDS011;3130;41.564;23.280;2022-08-01T09:15:40;4.13;;;3.45;;
6193;SDS011;3130;41.564;23.280;2022-08-01T09:18:08;4.72;;;3.40;;
6193;SDS011;3130;41.564;23.280;2022-08-01T09:21:02;3.00;;;2.70;;
6193;SDS011;3130;41.564;23.280;2022-08-01T09:23:35;6.30;;;3.00;;
6193;SDS011;3130;41.564;23.280;2022-08-01T09:26:06;4.00;;;3.08;;
6193;SDS011;3130;41.564;23.280;2022-08-01T09:28:33;3.95;;;3.00;;
6193;SDS011;3130;41.564;23.280;2022-08-01T09:31:05;3.28;;;2.85;;
6193;SDS011;3130;41.564;23.280;2022-08-01T09:33:49;3.33;;;3.00;;
6193;SDS011;3130;41.564;23.280;2022-08-01T09:36:21;4.07;;;3.20;;
6193;SDS011;3130;41.564;23.280;2022-08-01T09:38:53;3.05;;;2.75;;
6193;SDS011;3130;41.564;23.280;2022-08-01T09:41:34;8.10;;;4.10;;
6193;SDS011;3130;41.564;23.280;2022-08-01T09:44:01;4.28;;;3.30;;
6193;SDS011;3130;41.564;23.280;2022-08-01T09:46:34;4.68;;;3.20;;
6193;SDS011;3130;41.564;23.280;2022-08-01T09:49:02;3.15;;;2.72;;
6193;SDS011;3130;41.564;23.280;2022-08-01T09:51:35;3.35;;;3.10;;
6193;SDS011;3130;41.564;23.280;2022-08-01T09:54:04;3.90;;;3.20;;
6193;SDS011;3130;41.564;23.280;2022-08-01T09:56:37;5.35;;;2.90;;
6193;SDS011;3130;41.564;23.280;2022-08-01T09:59:07;3.63;;;3.00;;
6193;SDS011;3130;41.564;23.280;2022-08-01T10:01:42;3.97;;;3.38;;
6193;SDS011;3130;41.564;23.280;2022-08-01T10:04:11;3.25;;;2.95;;
6193;SDS011;3130;41.564;23.280;2022-08-01T10:06:40;4.03;;;3.00;;
6193;SDS011;3130;41.564;23.280;2022-08-01T10:09:09;4.63;;;2.95;;
6193;SDS011;3130;41.564;23.280;2022-08-01T10:11:39;4.13;;;2.65;;
6193;SDS011;3130;41.564;23.280;2022-08-01T10:14:07;3.67;;;3.35;;
6193;SDS011;3130;41.564;23.280;2022-08-01T10:16:37;3.55;;;3.10;;
6193;SDS011;3130;41.564;23.280;2022-08-01T10:19:05;3.65;;;2.97;;
6193;SDS011;3130;41.564;23.280;2022-08-01T10:21:33;4.00;;;3.40;;
6193;SDS011;3130;41.564;23.280;2022-08-01T10:24:03;3.60;;;3.30;;
6193;SDS011;3130;41.564;23.280;2022-08-01T10:26:33;3.53;;;3.22;;
6193;SDS011;3130;41.564;23.280;2022-08-01T10:29:03;5.97;;;3.25;;
6193;SDS011;3130;41.564;23.280;2022-08-01T10:31:32;3.10;;;2.78;;
6193;SDS011;3130;41.564;23.280;2022-08-01T10:33:59;4.35;;;3.30;;
6193;SDS011;3130;41.564;23.280;2022-08-01T10:36:27;4.07;;;3.45;;
6193;SDS011;3130;41.564;23.280;2022-08-01T10:38:56;4.57;;;3.45;;
6193;SDS011;3130;41.564;23.280;2022-08-01T10:41:25;4.10;;;2.95;;
6193;SDS011;3130;41.564;23.280;2022-08-01T10:43:54;4.00;;;3.63;;
6193;SDS011;3130;41.564;23.280;2022-08-01T10:46:32;3.53;;;3.22;;
6193;SDS011;3130;41.564;23.280;2022-08-01T10:49:04;3.88;;;2.80;;
6193;SDS011;3130;41.564;23.280;2022-08-01T10:51:37;3.97;;;3.17;;
6193;SDS011;3130;41.564;23.280;2022-08-01T10:54:05;3.85;;;3.45;;
6193;SDS011;3130;41.564;23.280;2022-08-01T10:56:38;5.18;;;3.33;;
6193;SDS011;3130;41.564;23.280;2022-08-01T10:59:06;3.30;;;2.97;;
6193;SDS011;3130;41.564;23.280;2022-08-01T11:01:35;3.47;;;3.17;;
6193;SDS011;3130;41.564;23.280;2022-08-01T11:04:06;5.20;;;3.00;;
6193;SDS011;3130;41.564;23.280;2022-08-01T11:06:39;3.78;;;3.15;;
6193;SDS011;3130;41.564;23.280;2022-08-01T11:09:22;4.68;;;3.10;;
6193;SDS011;3130;41.564;23.280;2022-08-01T11:12:02;3.67;;;3.38;;
6193;SDS011;3130;41.564;23.280;2022-08-01T11:14:34;3.67;;;2.78;;
6193;SDS011;3130;41.564;23.280;2022-08-01T11:17:32;3.35;;;3.05;;
6193;SDS011;3130;41.564;23.280;2022-08-01T11:20:03;3.50;;;2.90;;
6193;SDS011;3130;41.564;23.280;2022-08-01T11:22:32;5.45;;;3.78;;
6193;SDS011;3130;41.564;23.280;2022-08-01T11:25:21;3.22;;;2.92;;
6193;SDS011;3130;41.564;23.280;2022-08-01T11:27:48;3.17;;;2.88;;
6193;SDS011;3130;41.564;23.280;2022-08-01T11:30:21;3.55;;;3.25;;
6193;SDS011;3130;41.564;23.280;2022-08-01T11:32:52;4.32;;;3.05;;
6193;SDS011;3130;41.564;23.280;2022-08-01T11:35:21;3.47;;;2.78;;
6193;SDS011;3130;41.564;23.280;2022-08-01T11:37:50;4.75;;;3.22;;
6193;SDS011;3130;41.564;23.280;2022-08-01T11:40:20;4.65;;;2.75;;
6193;SDS011;3130;41.564;23.280;2022-08-01T11:42:50;3.65;;;3.25;;
6193;SDS011;3130;41.564;23.280;2022-08-01T11:45:47;3.92;;;3.20;;
6193;SDS011;3130;41.564;23.280;2022-08-01T11:48:20;4.68;;;3.00;;
6193;SDS011;3130;41.564;23.280;2022-08-01T11:50:49;3.85;;;3.17;;
6193;SDS011;3130;41.564;23.280;2022-08-01T11:53:16;3.63;;;3.25;;
6193;SDS011;3130;41.564;23.280;2022-08-01T11:55:45;4.38;;;2.78;;
6193;SDS011;3130;41.564;23.280;2022-08-01T11:58:14;2.72;;;2.42;;
6193;SDS011;3130;41.564;23.280;2022-08-01T12:00:49;3.45;;;2.63;;
6193;SDS011;3130;41.564;23.280;2022-08-01T12:03:22;3.20;;;2.95;;
6193;SDS011;3130;41.564;23.280;2022-08-01T12:05:52;3.45;;;2.83;;
6193;SDS011;3130;41.564;23.280;2022-08-01T12:08:26;3.67;;;3.38;;
6193;SDS011;3130;41.564;23.280;2022-08-01T12:10:54;3.78;;;3.17;;
6193;SDS011;3130;41.564;23.280;2022-08-01T12:13:23;4.72;;;2.53;;
6193;SDS011;3130;41.564;23.280;2022-08-01T12:15:50;2.97;;;2.72;;
6193;SDS011;3130;41.564;23.280;2022-08-01T12:18:17;2.75;;;2.53;;
6193;SDS011;3130;41.564;23.280;2022-08-01T12:20:46;3.17;;;2.88;;
6193;SDS011;3130;41.564;23.280;2022-08-01T12:23:14;3.78;;;2.80;;
6193;SDS011;3130;41.564;23.280;2022-08-01T12:25:42;3.85;;;2.95;;
6193;SDS011;3130;41.564;23.280;2022-08-01T12:28:12;3.30;;;2.78;;
6193;SDS011;3130;41.564;23.280;2022-08-01T12:30:39;2.60;;;2.40;;
6193;SDS011;3130;41.564;23.280;2022-08-01T12:33:07;4.60;;;3.17;;
6193;SDS011;3130;41.564;23.280;2022-08-01T12:35:37;3.20;;;2.90;;
6193;SDS011;3130;41.564;23.280;2022-08-01T12:38:15;3.28;;;2.92;;
6193;SDS011;3130;41.564;23.280;2022-08-01T12:40:47;3.78;;;3.30;;
6193;SDS011;3130;41.564;23.280;2022-08-01T12:43:15;5.13;;;3.13;;
6193;SDS011;3130;41.564;23.280;2022-08-01T12:45:44;3.40;;;3.10;;
6193;SDS011;3130;41.564;23.280;2022-08-01T12:48:13;5.63;;;2.63;;
6193;SDS011;3130;41.564;23.280;2022-08-01T12:50:42;3.25;;;2.95;;
6193;SDS011;3130;41.564;23.280;2022-08-01T12:53:11;3.58;;;2.97;;
6193;SDS011;3130;41.564;23.280;2022-08-01T12:55:44;3.88;;;3.20;;
6193;SDS011;3130;41.564;23.280;2022-08-01T12:58:14;2.58;;;2.35;;
6193;SDS011;3130;41.564;23.280;2022-08-01T13:00:44;4.10;;;2.70;;
6193;SDS011;3130;41.564;23.280;2022-08-01T13:03:13;3.38;;;2.88;;
6193;SDS011;3130;41.564;23.280;2022-08-01T13:05:42;3.28;;;2.97;;
6193;SDS011;3130;41.564;23.280;2022-08-01T13:08:10;4.03;;;3.13;;
6193;SDS011;3130;41.564;23.280;2022-08-01T13:10:39;3.63;;;2.90;;
6193;SDS011;3130;41.564;23.280;2022-08-01T13:13:08;2.85;;;2.65;;
6193;SDS011;3130;41.564;23.280;2022-08-01T13:15:36;3.30;;;3.00;;
6193;SDS011;3130;41.564;23.280;2022-08-01T13:20:56;3.33;;;3.13;;
6193;SDS011;3130;41.564;23.280;2022-08-01T13:23:34;3.85;;;3.55;;
6193;SDS011;3130;41.564;23.280;2022-08-01T13:26:01;3.10;;;2.90;;
6193;SDS011;3130;41.564;23.280;2022-08-01T13:28:31;3.72;;;3.42;;
6193;SDS011;3130;41.564;23.280;2022-08-01T13:31:00;3.38;;;3.08;;
6193;SDS011;3130;41.564;23.280;2022-08-01T13:33:40;3.17;;;2.88;;
6193;SDS011;3130;41.564;23.280;2022-08-01T13:36:09;3.15;;;2.42;;
6193;SDS011;3130;41.564;23.280;2022-08-01T13:38:36;3.28;;;2.30;;
6193;SDS011;3130;41.564;23.280;2022-08-01T13:41:23;2.65;;;2.45;;
6193;SDS011;3130;41.564;23.280;2022-08-01T13:43:52;2.97;;;2.78;;
6193;SDS011;3130;41.564;23.280;2022-08-01T13:46:20;2.90;;;2.60;;
6193;SDS011;3130;41.564;23.280;2022-08-01T13:48:47;3.15;;;2.85;;
6193;SDS011;3130;41.564;23.280;2022-08-01T13:51:14;5.80;;;3.05;;
6193;SDS011;3130;41.564;23.280;2022-08-01T13:53:41;3.67;;;2.75;;
6193;SDS011;3130;41.564;23.280;2022-08-01T13:56:09;4.45;;;3.00;;
6193;SDS011;3130;41.564;23.280;2022-08-01T13:58:36;3.47;;;2.90;;
6193;SDS011;3130;41.564;23.280;2022-08-01T14:01:05;2.80;;;2.60;;
6193;SDS011;3130;41.564;23.280;2022-08-01T14:03:33;2.80;;;2.60;;
6193;SDS011;3130;41.564;23.280;2022-08-01T14:06:00;3.13;;;2.83;;
6193;SDS011;3130;41.564;23.280;2022-08-01T14:08:30;2.72;;;2.50;;
6193;SDS011;3130;41.564;23.280;2022-08-01T14:11:01;2.70;;;2.50;;
6193;SDS011;3130;41.564;23.280;2022-08-01T14:13:28;6.65;;;2.88;;
6193;SDS011;3130;41.564;23.280;2022-08-01T14:15:56;2.60;;;2.40;;
6193;SDS011;3130;41.564;23.280;2022-08-01T14:18:25;4.28;;;2.75;;
6193;SDS011;3130;41.564;23.280;2022-08-01T14:20:52;4.85;;;2.90;;
6193;SDS011;3130;41.564;23.280;2022-08-01T14:23:19;2.95;;;2.75;;
6193;SDS011;3130;41.564;23.280;2022-08-01T14:25:46;3.92;;;2.67;;
6193;SDS011;3130;41.564;23.280;2022-08-01T14:28:13;3.22;;;3.03;;
6193;SDS011;3130;41.564;23.280;2022-08-01T14:30:40;3.92;;;3.53;;
6193;SDS011;3130;41.564;23.280;2022-08-01T14:33:08;4.75;;;2.75;;
6193;SDS011;3130;41.564;23.280;2022-08-01T14:35:37;3.35;;;2.83;;
6193;SDS011;3130;41.564;23.280;2022-08-01T14:38:04;2.80;;;2.60;;
6193;SDS011;3130;41.564;23.280;2022-08-01T14:40:32;3.20;;;2.95;;
6193;SDS011;3130;41.564;23.280;2022-08-01T14:42:59;5.53;;;3.47;;
6193;SDS011;3130;41.564;23.280;2022-08-01T14:45:27;2.90;;;2.53;;
6193;SDS011;3130;41.564;23.280;2022-08-01T14:47:54;3.35;;;3.05;;
6193;SDS011;3130;41.564;23.280;2022-08-01T14:50:22;3.22;;;2.92;;
6193;SDS011;3130;41.564;23.280;2022-08-01T14:52:53;3.55;;;2.67;;
6193;SDS011;3130;41.564;23.280;2022-08-01T14:55:21;2.90;;;2.67;;
6193;SDS011;3130;41.564;23.280;2022-08-01T14:57:50;3.40;;;2.80;;
6193;SDS011;3130;41.564;23.280;2022-08-01T15:00:17;2.83;;;2.63;;
6193;SDS011;3130;41.564;23.280;2022-08-01T15:02:45;2.80;;;2.55;;
6193;SDS011;3130;41.564;23.280;2022-08-01T15:05:12;3.60;;;3.30;;
6193;SDS011;3130;41.564;23.280;2022-08-01T15:07:40;3.40;;;2.97;;
6193;SDS011;3130;41.564;23.280;2022-08-01T15:10:09;3.78;;;3.47;;
6193;SDS011;3130;41.564;23.280;2022-08-01T15:12:36;9.75;;;3.03;;
6193;SDS011;3130;41.564;23.280;2022-08-01T15:15:04;4.45;;;4.00;;
6193;SDS011;3130;41.564;23.280;2022-08-01T15:17:33;3.45;;;3.08;;
6193;SDS011;3130;41.564;23.280;2022-08-01T15:20:01;3.13;;;2.83;;